sensor_id;sensor_type;location;lat;lon;timestamp;pressure;altitude;pressure_sealevel;temperature;humidity
75447;BME280;64024;55.820;37.574;2022-11-20T00:01:13;98836.59;;;12.28;45.10
75447;BME280;64024;55.820;37.574;2022-11-20T00:03:39;98834.72;;;12.29;44.89
75447;BME280;64024;55.820;37.574;2022-11-20T00:06:07;98835.78;;;12.28;44.79
75447;BME280;64024;55.820;37.574;2022-11-20T00:08:33;98834.13;;;12.27;44.81
75447;BME280;64024;55.820;37.574;2022-11-20T00:11:05;98837.59;;;12.27;44.62
75447;BME280;64024;55.820;37.574;2022-11-20T00:13:32;98846.44;;;12.28;45.10
75447;BME280;64024;55.820;37.574;2022-11-20T00:16:06;98852.78;;;12.27;44.93
75447;BME280;64024;55.820;37.574;2022-11-20T00:18:33;98843.19;;;12.26;45.01
75447;BME280;64024;55.820;37.574;2022-11-20T00:21:07;98839.47;;;12.27;45.09
75447;BME280;64024;55.820;37.574;2022-11-20T00:23:34;98844.78;;;12.27;45.10
75447;BME280;64024;55.820;37.574;2022-11-20T00:26:07;98841.31;;;12.26;45.01
75447;BME280;64024;55.820;37.574;2022-11-20T00:28:33;98843.97;;;12.26;44.96
75447;BME280;64024;55.820;37.574;2022-11-20T00:31:08;98846.66;;;12.26;44.90
75447;BME280;64024;55.820;37.574;2022-11-20T00:33:34;98851.16;;;12.26;45.01
75447;BME280;64024;55.820;37.574;2022-11-20T00:36:05;98848.75;;;12.24;44.82
75447;BME280;64024;55.820;37.574;2022-11-20T00:38:31;98851.16;;;12.26;44.86
75447;BME280;64024;55.820;37.574;2022-11-20T00:40:59;98842.59;;;12.24;44.86
75447;BME280;64024;55.820;37.574;2022-11-20T00:43:25;98837.50;;;12.22;44.93
75447;BME280;64024;55.820;37.574;2022-11-20T00:45:56;98835.88;;;12.21;44.84
75447;BME280;64024;55.820;37.574;2022-11-20T00:48:22;98842.25;;;12.20;44.96
75447;BME280;64024;55.820;37.574;2022-11-20T00:50:47;98837.72;;;12.21;44.66
75447;BME280;64024;55.820;37.574;2022-11-20T00:53:13;98833.44;;;12.19;44.77
75447;BME280;64024;55.820;37.574;2022-11-20T00:55:39;98833.44;;;12.19;44.76
75447;BME280;64024;55.820;37.574;2022-11-20T00:58:04;98842.44;;;12.18;44.69
75447;BME280;64024;55.820;37.574;2022-11-20T01:00:30;98838.97;;;12.18;44.73
75447;BME280;64024;55.820;37.574;2022-11-20T01:02:56;98856.59;;;12.19;44.67
75447;BME280;64024;55.820;37.574;2022-11-20T01:05:21;98834.47;;;12.18;44.84
75447;BME280;64024;55.820;37.574;2022-11-20T01:07:47;98844.31;;;12.18;44.86
75447;BME280;64024;55.820;37.574;2022-11-20T01:10:12;98842.69;;;12.17;44.72
75447;BME280;64024;55.820;37.574;2022-11-20T01:12:38;98854.16;;;12.17;44.79
75447;BME280;64024;55.820;37.574;2022-11-20T01:15:03;98847.78;;;12.18;44.68
75447;BME280;64024;55.820;37.574;2022-11-20T01:17:31;98839.78;;;12.18;44.67
75447;BME280;64024;55.820;37.574;2022-11-20T01:19:56;98841.66;;;12.18;44.68
75447;BME280;64024;55.820;37.574;2022-11-20T01:22:22;98839.78;;;12.18;44.49
75447;BME280;64024;55.820;37.574;2022-11-20T01:24:47;98831.81;;;12.18;44.71
75447;BME280;64024;55.820;37.574;2022-11-20T01:27:13;98834.69;;;12.17;44.39
75447;BME280;64024;55.820;37.574;2022-11-20T01:29:38;98841.66;;;12.18;44.51
75447;BME280;64024;55.820;37.574;2022-11-20T01:32:04;98833.91;;;12.16;44.58
75447;BME280;64024;55.820;37.574;2022-11-20T01:34:30;98842.94;;;12.15;44.56
75447;BME280;64024;55.820;37.574;2022-11-20T01:36:55;98840.28;;;12.15;44.47
75447;BME280;64024;55.820;37.574;2022-11-20T01:39:23;98844.75;;;12.15;44.62
75447;BME280;64024;55.820;37.574;2022-11-20T01:41:51;98847.41;;;12.15;44.50
75447;BME280;64024;55.820;37.574;2022-11-20T01:47:07;98845.34;;;12.17;44.34
75447;BME280;64024;55.820;37.574;2022-11-20T01:49:39;98849.88;;;12.16;44.24
75447;BME280;64024;55.820;37.574;2022-11-20T01:52:27;98850.94;;;12.15;44.24
75447;BME280;64024;55.820;37.574;2022-11-20T01:55:06;98856.25;;;12.15;44.38
75447;BME280;64024;55.820;37.574;2022-11-20T01:57:33;98855.66;;;12.13;44.32
75447;BME280;64024;55.820;37.574;2022-11-20T02:00:05;98862.84;;;12.13;44.30
75447;BME280;64024;55.820;37.574;2022-11-20T02:02:32;98866.53;;;12.12;44.09
75447;BME280;64024;55.820;37.574;2022-11-20T02:05:02;98870.03;;;12.12;44.07
75447;BME280;64024;55.820;37.574;2022-11-20T02:07:29;98873.50;;;12.13;44.20
75447;BME280;64024;55.820;37.574;2022-11-20T02:09:55;98876.16;;;12.13;44.22
75447;BME280;64024;55.820;37.574;2022-11-20T02:12:21;98875.34;;;12.12;44.47
75447;BME280;64024;55.820;37.574;2022-11-20T02:15:05;98878.00;;;12.12;44.02
75447;BME280;64024;55.820;37.574;2022-11-20T02:17:31;98877.41;;;12.10;44.09
75447;BME280;64024;55.820;37.574;2022-11-20T02:19:56;98880.06;;;12.10;43.89
75447;BME280;64024;55.820;37.574;2022-11-20T02:22:30;98875.78;;;12.09;44.12
75447;BME280;64024;55.820;37.574;2022-11-20T02:24:58;98886.69;;;12.08;44.04
75447;BME280;64024;55.820;37.574;2022-11-20T02:27:25;98886.69;;;12.08;43.95
75447;BME280;64024;55.820;37.574;2022-11-20T02:29:53;98886.69;;;12.08;44.31
75447;BME280;64024;55.820;37.574;2022-11-20T02:34:53;98891.19;;;12.07;43.97
75447;BME280;64024;55.820;37.574;2022-11-20T02:37:19;98890.38;;;12.07;44.15
75447;BME280;64024;55.820;37.574;2022-11-20T02:39:46;98901.03;;;12.07;43.87
75447;BME280;64024;55.820;37.574;2022-11-20T02:42:13;98901.84;;;12.07;44.00
75447;BME280;64024;55.820;37.574;2022-11-20T02:44:39;98903.72;;;12.07;43.89
75447;BME280;64024;55.820;37.574;2022-11-20T02:47:04;98897.53;;;12.06;43.98
75447;BME280;64024;55.820;37.574;2022-11-20T02:49:30;98907.19;;;12.07;43.98
75447;BME280;64024;55.820;37.574;2022-11-20T02:51:55;98903.91;;;12.05;43.93
75447;BME280;64024;55.820;37.574;2022-11-20T02:54:22;98900.44;;;12.05;44.02
75447;BME280;64024;55.820;37.574;2022-11-20T02:56:47;98909.47;;;12.04;43.91
75447;BME280;64024;55.820;37.574;2022-11-20T02:59:13;98899.63;;;12.04;43.81
75447;BME280;64024;55.820;37.574;2022-11-20T03:01:38;98898.81;;;12.04;43.78
75447;BME280;64024;55.820;37.574;2022-11-20T03:04:04;98894.75;;;12.01;43.78
75447;BME280;64024;55.820;37.574;2022-11-20T03:06:29;98905.84;;;11.98;43.54
75447;BME280;64024;55.820;37.574;2022-11-20T03:08:55;98900.19;;;11.94;43.28
75447;BME280;64024;55.820;37.574;2022-11-20T03:11:20;98901.44;;;11.92;43.72
75447;BME280;64024;55.820;37.574;2022-11-20T03:13:46;98909.88;;;11.89;44.12
75447;BME280;64024;55.820;37.574;2022-11-20T03:16:14;98906.63;;;11.87;45.57
75447;BME280;64024;55.820;37.574;2022-11-20T03:18:41;98899.88;;;11.84;46.63
75447;BME280;64024;55.820;37.574;2022-11-20T03:21:08;98901.94;;;11.82;47.10
75447;BME280;64024;55.820;37.574;2022-11-20T03:23:34;98902.16;;;11.81;47.21
75447;BME280;64024;55.820;37.574;2022-11-20T03:26:30;98909.34;;;11.80;47.76
75447;BME280;64024;55.820;37.574;2022-11-20T03:29:00;98907.91;;;11.78;47.52
75447;BME280;64024;55.820;37.574;2022-11-20T03:31:29;98906.75;;;11.74;47.73
75447;BME280;64024;55.820;37.574;2022-11-20T03:33:56;98909.63;;;11.72;47.54
75447;BME280;64024;55.820;37.574;2022-11-20T03:36:22;98910.91;;;11.69;47.43
75447;BME280;64024;55.820;37.574;2022-11-20T03:38:48;98921.75;;;11.68;47.08
75447;BME280;64024;55.820;37.574;2022-11-20T03:41:17;98910.53;;;11.66;46.97
75447;BME280;64024;55.820;37.574;2022-11-20T03:43:51;98911.78;;;11.63;46.37
75447;BME280;64024;55.820;37.574;2022-11-20T03:46:17;98911.22;;;11.61;46.32
75447;BME280;64024;55.820;37.574;2022-11-20T03:48:43;98913.25;;;11.59;46.49
75447;BME280;64024;55.820;37.574;2022-11-20T03:51:17;98918.81;;;11.58;46.20
75447;BME280;64024;55.820;37.574;2022-11-20T03:53:44;98919.63;;;11.58;46.34
75447;BME280;64024;55.820;37.574;2022-11-20T03:56:11;98922.50;;;11.57;46.26
75447;BME280;64024;55.820;37.574;2022-11-20T03:58:38;98925.16;;;11.57;46.40
75447;BME280;64024;55.820;37.574;2022-11-20T04:01:15;98924.16;;;11.58;46.70
75447;BME280;64024;55.820;37.574;2022-11-20T04:03:42;98934.31;;;11.61;46.63
75447;BME280;64024;55.820;37.574;2022-11-20T04:06:10;98934.31;;;11.61;46.83
75447;BME280;64024;55.820;37.574;2022-11-20T04:08:37;98931.47;;;11.62;46.76
75447;BME280;64024;55.820;37.574;2022-11-20T04:13:40;98938.78;;;11.67;46.58
75447;BME280;64024;55.820;37.574;2022-11-20T04:16:08;98936.91;;;11.67;46.72
75447;BME280;64024;55.820;37.574;2022-11-20T04:18:34;98941.81;;;11.70;46.63
75447;BME280;64024;55.820;37.574;2022-11-20T04:21:00;98941.56;;;11.72;46.48
75447;BME280;64024;55.820;37.574;2022-11-20T04:23:26;98944.03;;;11.74;46.39
75447;BME280;64024;55.820;37.574;2022-11-20T04:25:52;98946.47;;;11.75;46.51
75447;BME280;64024;55.820;37.574;2022-11-20T04:28:17;98953.41;;;11.76;46.25
75447;BME280;64024;55.820;37.574;2022-11-20T04:30:43;98954.22;;;11.77;46.15
75447;BME280;64024;55.820;37.574;2022-11-20T04:33:08;98960.16;;;11.79;46.02
75447;BME280;64024;55.820;37.574;2022-11-20T04:35:35;98959.53;;;11.77;45.99
75447;BME280;64024;55.820;37.574;2022-11-20T04:38:01;98958.16;;;11.74;45.68
75447;BME280;64024;55.820;37.574;2022-11-20T04:40:27;98959.25;;;11.66;45.97
75447;BME280;64024;55.820;37.574;2022-11-20T04:42:54;98965.91;;;11.57;45.40
75447;BME280;64024;55.820;37.574;2022-11-20T04:45:19;98979.72;;;11.48;45.27
75447;BME280;64024;55.820;37.574;2022-11-20T04:47:45;98981.84;;;11.39;45.33
75447;BME280;64024;55.820;37.574;2022-11-20T04:50:10;98982.34;;;11.29;44.78
75447;BME280;64024;55.820;37.574;2022-11-20T04:52:36;98990.00;;;11.19;45.01
75447;BME280;64024;55.820;37.574;2022-11-20T04:55:02;98999.06;;;11.11;45.03
75447;BME280;64024;55.820;37.574;2022-11-20T04:57:28;99000.56;;;11.07;45.11
75447;BME280;64024;55.820;37.574;2022-11-20T04:59:53;98993.81;;;11.05;45.08
75447;BME280;64024;55.820;37.574;2022-11-20T05:02:19;99001.19;;;11.03;45.21
75447;BME280;64024;55.820;37.574;2022-11-20T05:04:44;99002.03;;;11.03;44.85
75447;BME280;64024;55.820;37.574;2022-11-20T05:07:10;99002.03;;;11.03;44.98
75447;BME280;64024;55.820;37.574;2022-11-20T05:09:35;99001.41;;;11.01;44.90
75447;BME280;64024;55.820;37.574;2022-11-20T05:12:01;99000.59;;;11.01;44.68
75447;BME280;64024;55.820;37.574;2022-11-20T05:14:26;99005.09;;;11.00;44.98
75447;BME280;64024;55.820;37.574;2022-11-20T05:16:52;98999.19;;;10.98;44.80
75447;BME280;64024;55.820;37.574;2022-11-20T05:19:17;98997.56;;;10.97;44.94
75447;BME280;64024;55.820;37.574;2022-11-20T05:21:42;99001.25;;;10.96;44.96
75447;BME280;64024;55.820;37.574;2022-11-20T05:24:08;99010.25;;;10.95;44.45
75447;BME280;64024;55.820;37.574;2022-11-20T05:26:33;99014.75;;;10.94;44.58
75447;BME280;64024;55.820;37.574;2022-11-20T05:28:59;99015.78;;;10.93;44.58
75447;BME280;64024;55.820;37.574;2022-11-20T05:31:25;99017.63;;;10.93;44.53
75447;BME280;64024;55.820;37.574;2022-11-20T05:33:50;99016.00;;;10.92;44.55
75447;BME280;64024;55.820;37.574;2022-11-20T05:36:17;99027.44;;;10.92;44.46
75447;BME280;64024;55.820;37.574;2022-11-20T05:38:43;99031.16;;;10.91;44.77
75447;BME280;64024;55.820;37.574;2022-11-20T05:41:12;99032.16;;;10.90;44.50
75447;BME280;64024;55.820;37.574;2022-11-20T05:43:40;99037.47;;;10.90;44.42
75447;BME280;64024;55.820;37.574;2022-11-20T05:46:07;99039.31;;;10.90;44.44
75447;BME280;64024;55.820;37.574;2022-11-20T05:48:34;99032.38;;;10.89;44.74
75447;BME280;64024;55.820;37.574;2022-11-20T05:51:01;99030.97;;;10.86;44.26
75447;BME280;64024;55.820;37.574;2022-11-20T05:53:27;99030.59;;;10.83;44.79
75447;BME280;64024;55.820;37.574;2022-11-20T05:56:04;99038.59;;;10.76;44.66
75447;BME280;64024;55.820;37.574;2022-11-20T05:58:31;99048.25;;;10.70;44.45
75447;BME280;64024;55.820;37.574;2022-11-20T06:01:20;99043.19;;;10.62;44.60
75447;BME280;64024;55.820;37.574;2022-11-20T06:03:46;99053.84;;;10.56;44.49
75447;BME280;64024;55.820;37.574;2022-11-20T06:06:13;99058.16;;;10.50;44.35
75447;BME280;64024;55.820;37.574;2022-11-20T06:08:39;99063.31;;;10.45;44.47
75447;BME280;64024;55.820;37.574;2022-11-20T06:11:07;99070.06;;;10.41;44.81
75447;BME280;64024;55.820;37.574;2022-11-20T06:13:34;99076.00;;;10.36;44.39
75447;BME280;64024;55.820;37.574;2022-11-20T06:15:59;99073.56;;;10.35;44.17
75447;BME280;64024;55.820;37.574;2022-11-20T06:18:26;99072.56;;;10.29;44.00
75447;BME280;64024;55.820;37.574;2022-11-20T06:21:01;99074.41;;;10.29;44.34
75447;BME280;64024;55.820;37.574;2022-11-20T06:23:28;99079.31;;;10.25;43.88
75447;BME280;64024;55.820;37.574;2022-11-20T06:25:54;99080.28;;;10.24;44.38
75447;BME280;64024;55.820;37.574;2022-11-20T06:28:19;99081.31;;;10.23;44.00
75447;BME280;64024;55.820;37.574;2022-11-20T06:30:45;99088.47;;;10.23;43.96
75447;BME280;64024;55.820;37.574;2022-11-20T06:33:11;99081.72;;;10.20;44.16
75447;BME280;64024;55.820;37.574;2022-11-20T06:35:36;99096.84;;;10.19;43.94
75447;BME280;64024;55.820;37.574;2022-11-20T06:38:02;99106.88;;;10.17;44.12
75447;BME280;64024;55.820;37.574;2022-11-20T06:40:27;99108.72;;;10.17;44.00
75447;BME280;64024;55.820;37.574;2022-11-20T06:42:54;99107.06;;;10.16;44.48
75447;BME280;64024;55.820;37.574;2022-11-20T06:45:20;99105.44;;;10.15;44.21
75447;BME280;64024;55.820;37.574;2022-11-20T06:47:45;99108.91;;;10.15;44.42
75447;BME280;64024;55.820;37.574;2022-11-20T06:50:11;99105.44;;;10.15;43.99
75447;BME280;64024;55.820;37.574;2022-11-20T06:52:36;99104.63;;;10.14;44.29
75447;BME280;64024;55.820;37.574;2022-11-20T06:55:02;99103.59;;;10.15;43.81
75447;BME280;64024;55.820;37.574;2022-11-20T06:57:27;99085.84;;;10.16;43.82
75447;BME280;64024;55.820;37.574;2022-11-20T06:59:53;99092.97;;;10.15;43.94
75447;BME280;64024;55.820;37.574;2022-11-20T07:02:18;99096.44;;;10.16;43.38
75447;BME280;64024;55.820;37.574;2022-11-20T07:04:44;99098.31;;;10.15;44.03
75447;BME280;64024;55.820;37.574;2022-11-20T07:07:09;99100.13;;;10.15;43.24
75447;BME280;64024;55.820;37.574;2022-11-20T07:09:35;99104.03;;;10.12;43.60
75447;BME280;64024;55.820;37.574;2022-11-20T07:12:00;99104.25;;;10.11;43.14
75447;BME280;64024;55.820;37.574;2022-11-20T07:14:26;99101.00;;;10.09;43.74
75447;BME280;64024;55.820;37.574;2022-11-20T07:16:51;99098.34;;;10.09;43.53
75447;BME280;64024;55.820;37.574;2022-11-20T07:19:17;99096.50;;;10.09;43.65
75447;BME280;64024;55.820;37.574;2022-11-20T07:21:42;99086.28;;;10.13;44.08
75447;BME280;64024;55.820;37.574;2022-11-20T07:24:08;99090.34;;;10.15;43.65
75447;BME280;64024;55.820;37.574;2022-11-20T07:26:33;99090.72;;;10.19;43.56
75447;BME280;64024;55.820;37.574;2022-11-20T07:28:59;99110.94;;;10.20;43.71
75447;BME280;64024;55.820;37.574;2022-11-20T07:31:24;99113.59;;;10.20;44.02
75447;BME280;64024;55.820;37.574;2022-11-20T07:33:50;99110.75;;;10.21;43.90
75447;BME280;64024;55.820;37.574;2022-11-20T07:36:15;99109.13;;;10.20;43.90
75447;BME280;64024;55.820;37.574;2022-11-20T07:38:41;99112.59;;;10.21;43.82
75447;BME280;64024;55.820;37.574;2022-11-20T07:41:06;99099.31;;;10.21;43.72
75447;BME280;64024;55.820;37.574;2022-11-20T07:43:32;99107.06;;;10.23;44.32
75447;BME280;64024;55.820;37.574;2022-11-20T07:45:58;99106.03;;;10.24;43.87
75447;BME280;64024;55.820;37.574;2022-11-20T07:48:24;99117.31;;;10.26;44.20
75447;BME280;64024;55.820;37.574;2022-11-20T07:50:56;99117.31;;;10.26;44.27
75447;BME280;64024;55.820;37.574;2022-11-20T07:53:23;99115.47;;;10.26;44.29
75447;BME280;64024;55.820;37.574;2022-11-20T07:55:48;99118.13;;;10.26;44.13
75447;BME280;64024;55.820;37.574;2022-11-20T07:58:14;99132.22;;;10.27;44.19
75447;BME280;64024;55.820;37.574;2022-11-20T08:00:40;99123.44;;;10.26;44.10
75447;BME280;64024;55.820;37.574;2022-11-20T08:03:06;99113.63;;;10.27;43.86
75447;BME280;64024;55.820;37.574;2022-11-20T08:05:32;99117.09;;;10.27;43.67
75447;BME280;64024;55.820;37.574;2022-11-20T08:07:58;99118.72;;;10.28;44.19
75447;BME280;64024;55.820;37.574;2022-11-20T08:10:24;99124.88;;;10.29;43.54
75447;BME280;64024;55.820;37.574;2022-11-20T08:12:51;99130.19;;;10.29;43.51
75447;BME280;64024;55.820;37.574;2022-11-20T08:15:37;99129.97;;;10.30;43.50
75447;BME280;64024;55.820;37.574;2022-11-20T08:18:05;99129.97;;;10.30;43.76
75447;BME280;64024;55.820;37.574;2022-11-20T08:20:30;99131.59;;;10.31;43.81
75447;BME280;64024;55.820;37.574;2022-11-20T08:23:06;99126.91;;;10.33;43.84
75447;BME280;64024;55.820;37.574;2022-11-20T08:25:32;99122.19;;;10.35;43.98
75447;BME280;64024;55.820;37.574;2022-11-20T08:28:04;99122.81;;;10.37;43.79
75447;BME280;64024;55.820;37.574;2022-11-20T08:30:30;99109.47;;;10.44;43.95
75447;BME280;64024;55.820;37.574;2022-11-20T08:33:05;99110.25;;;10.58;44.82
75447;BME280;64024;55.820;37.574;2022-11-20T08:35:35;99119.97;;;10.77;44.86
75447;BME280;64024;55.820;37.574;2022-11-20T08:38:02;99123.97;;;10.93;44.84
75447;BME280;64024;55.820;37.574;2022-11-20T08:40:28;99120.81;;;11.09;45.27
75447;BME280;64024;55.820;37.574;2022-11-20T08:42:53;99124.81;;;11.25;45.29
75447;BME280;64024;55.820;37.574;2022-11-20T08:45:19;99128.19;;;11.39;45.09
75447;BME280;64024;55.820;37.574;2022-11-20T08:47:45;99133.41;;;11.52;45.36
75447;BME280;64024;55.820;37.574;2022-11-20T08:50:13;99135.59;;;11.62;44.83
75447;BME280;64024;55.820;37.574;2022-11-20T08:52:41;99135.91;;;11.72;45.26
75447;BME280;64024;55.820;37.574;2022-11-20T08:55:07;99140.72;;;11.82;45.10
75447;BME280;64024;55.820;37.574;2022-11-20T08:57:37;99143.34;;;11.95;45.38
75447;BME280;64024;55.820;37.574;2022-11-20T09:00:04;99136.97;;;12.14;45.50
75447;BME280;64024;55.820;37.574;2022-11-20T09:02:30;99153.13;;;12.38;45.50
75447;BME280;64024;55.820;37.574;2022-11-20T09:05:05;99158.16;;;12.64;45.46
75447;BME280;64024;55.820;37.574;2022-11-20T09:07:33;99153.19;;;12.86;45.04
75447;BME280;64024;55.820;37.574;2022-11-20T09:10:02;99156.41;;;13.07;44.98
75447;BME280;64024;55.820;37.574;2022-11-20T09:12:28;99164.41;;;13.25;45.04
75447;BME280;64024;55.820;37.574;2022-11-20T09:14:54;99176.41;;;13.46;44.71
75447;BME280;64024;55.820;37.574;2022-11-20T09:17:19;99174.34;;;13.60;44.27
75447;BME280;64024;55.820;37.574;2022-11-20T09:19:45;99164.72;;;13.71;44.32
75447;BME280;64024;55.820;37.574;2022-11-20T09:22:11;99172.16;;;13.80;43.55
75447;BME280;64024;55.820;37.574;2022-11-20T09:24:37;99177.88;;;13.84;43.77
75447;BME280;64024;55.820;37.574;2022-11-20T09:27:04;99192.72;;;13.80;43.50
75447;BME280;64024;55.820;37.574;2022-11-20T09:29:29;99193.31;;;13.70;43.01
75447;BME280;64024;55.820;37.574;2022-11-20T09:31:55;99203.94;;;13.58;42.96
75447;BME280;64024;55.820;37.574;2022-11-20T09:34:20;99206.38;;;13.48;43.41
75447;BME280;64024;55.820;37.574;2022-11-20T09:36:46;99205.41;;;13.42;43.20
75447;BME280;64024;55.820;37.574;2022-11-20T09:39:12;99207.94;;;13.37;43.70
75447;BME280;64024;55.820;37.574;2022-11-20T09:44:52;99217.69;;;13.32;43.79
75447;BME280;64024;55.820;37.574;2022-11-20T09:53:04;99225.38;;;13.22;43.86
75447;BME280;64024;55.820;37.574;2022-11-20T09:55:37;99225.81;;;13.18;43.95
75447;BME280;64024;55.820;37.574;2022-11-20T09:58:06;99213.97;;;13.14;44.06
75447;BME280;64024;55.820;37.574;2022-11-20T10:00:35;99215.25;;;13.12;44.27
75447;BME280;64024;55.820;37.574;2022-11-20T10:06:13;99210.13;;;13.10;44.30
75447;BME280;64024;55.820;37.574;2022-11-20T10:08:45;99217.53;;;13.08;44.43
75447;BME280;64024;55.820;37.574;2022-11-20T10:11:23;99226.28;;;13.15;44.43
75447;BME280;64024;55.820;37.574;2022-11-20T10:24:50;99231.25;;;12.93;45.04
75447;BME280;64024;55.820;37.574;2022-11-20T10:32:41;99234.84;;;12.87;44.81
75447;BME280;64024;55.820;37.574;2022-11-20T10:37:44;99237.34;;;12.82;44.83
75447;BME280;64024;55.820;37.574;2022-11-20T10:40:22;99241.28;;;12.80;45.02
75447;BME280;64024;55.820;37.574;2022-11-20T10:42:56;99240.69;;;12.78;45.16
75447;BME280;64024;55.820;37.574;2022-11-20T10:47:56;99240.31;;;12.74;45.07
75447;BME280;64024;55.820;37.574;2022-11-20T10:50:27;99246.91;;;12.72;45.25
75447;BME280;64024;55.820;37.574;2022-11-20T10:53:05;99247.94;;;12.71;45.34
75447;BME280;64024;55.820;37.574;2022-11-20T10:55:46;99254.09;;;12.71;45.44
75447;BME280;64024;55.820;37.574;2022-11-20T11:01:18;99255.94;;;12.71;45.93
75447;BME280;64024;55.820;37.574;2022-11-20T11:03:44;99265.56;;;12.72;46.00
75447;BME280;64024;55.820;37.574;2022-11-20T11:08:50;99261.50;;;12.69;45.71
75447;BME280;64024;55.820;37.574;2022-11-20T11:13:42;99267.78;;;12.75;45.78
75447;BME280;64024;55.820;37.574;2022-11-20T11:16:22;99272.16;;;12.69;45.52
75447;BME280;64024;55.820;37.574;2022-11-20T11:19:06;99272.81;;;12.64;46.11
75447;BME280;64024;55.820;37.574;2022-11-20T11:21:32;99276.94;;;12.60;45.96
75447;BME280;64024;55.820;37.574;2022-11-20T11:24:03;99286.22;;;12.58;45.99
75447;BME280;64024;55.820;37.574;2022-11-20T11:26:30;99273.56;;;12.53;46.05
75447;BME280;64024;55.820;37.574;2022-11-20T11:29:03;99272.13;;;12.51;46.08
75447;BME280;64024;55.820;37.574;2022-11-20T11:31:31;99276.03;;;12.48;45.78
75447;BME280;64024;55.820;37.574;2022-11-20T11:34:23;99276.88;;;12.49;46.14
75447;BME280;64024;55.820;37.574;2022-11-20T11:36:56;99272.78;;;12.46;45.71
75447;BME280;64024;55.820;37.574;2022-11-20T11:39:23;99274.84;;;12.44;46.22
75447;BME280;64024;55.820;37.574;2022-11-20T11:41:50;99273.22;;;12.43;46.22
75447;BME280;64024;55.820;37.574;2022-11-20T11:44:31;99275.88;;;12.43;46.22
75447;BME280;64024;55.820;37.574;2022-11-20T11:48:03;99273.22;;;12.43;46.33
75447;BME280;64024;55.820;37.574;2022-11-20T11:50:26;99278.16;;;12.39;46.39
75447;BME280;64024;55.820;37.574;2022-11-20T11:55:32;99284.16;;;12.35;46.58
75447;BME280;64024;55.820;37.574;2022-11-20T11:58:43;99287.06;;;12.33;46.58
75447;BME280;64024;55.820;37.574;2022-11-20T12:01:11;99281.09;;;12.31;46.59
75447;BME280;64024;55.820;37.574;2022-11-20T12:03:42;99284.22;;;12.28;46.68
75447;BME280;64024;55.820;37.574;2022-11-20T12:06:13;99308.41;;;12.27;46.73
75447;BME280;64024;55.820;37.574;2022-11-20T12:11:18;99293.47;;;12.26;46.96
75447;BME280;64024;55.820;37.574;2022-11-20T12:13:54;99294.50;;;12.25;47.00
75447;BME280;64024;55.820;37.574;2022-11-20T12:16:21;99297.59;;;12.22;46.73
75447;BME280;64024;55.820;37.574;2022-11-20T12:18:51;99306.00;;;12.18;46.78
75447;BME280;64024;55.820;37.574;2022-11-20T12:35:50;99297.00;;;12.19;46.66
75447;BME280;64024;55.820;37.574;2022-11-20T12:38:35;99292.97;;;12.35;46.57
75447;BME280;64024;55.820;37.574;2022-11-20T12:50:04;99296.13;;;12.94;45.26
75447;BME280;64024;55.820;37.574;2022-11-20T12:52:42;99300.56;;;13.00;45.09
75447;BME280;64024;55.820;37.574;2022-11-20T12:56:02;99293.34;;;13.01;45.01
75447;BME280;64024;55.820;37.574;2022-11-20T12:58:12;99306.78;;;12.94;45.07
75447;BME280;64024;55.820;37.574;2022-11-20T13:00:51;99303.38;;;12.87;45.27
75447;BME280;64024;55.820;37.574;2022-11-20T13:03:36;99304.22;;;12.81;45.78
75447;BME280;64024;55.820;37.574;2022-11-20T13:06:15;99316.84;;;12.74;45.43
75447;BME280;64024;55.820;37.574;2022-11-20T13:08:55;99314.84;;;12.69;45.72
75447;BME280;64024;55.820;37.574;2022-11-20T13:11:50;99319.78;;;12.65;45.65
75447;BME280;64024;55.820;37.574;2022-11-20T13:16:48;99322.72;;;12.57;45.88
75447;BME280;64024;55.820;37.574;2022-11-20T13:19:16;99324.19;;;12.53;45.70
75447;BME280;64024;55.820;37.574;2022-11-20T13:21:47;99322.19;;;12.49;46.19
75447;BME280;64024;55.820;37.574;2022-11-20T13:24:26;99324.25;;;12.47;46.13
75447;BME280;64024;55.820;37.574;2022-11-20T13:29:29;99314.66;;;12.39;46.40
75447;BME280;64024;55.820;37.574;2022-11-20T13:32:06;99324.13;;;12.35;45.93
75447;BME280;64024;55.820;37.574;2022-11-20T13:34:38;99328.88;;;12.33;46.08
75447;BME280;64024;55.820;37.574;2022-11-20T13:37:04;99327.44;;;12.30;45.85
75447;BME280;64024;55.820;37.574;2022-11-20T13:45:02;99340.84;;;12.24;45.75
75447;BME280;64024;55.820;37.574;2022-11-20T13:47:29;99342.09;;;12.21;46.12
75447;BME280;64024;55.820;37.574;2022-11-20T13:49:58;99342.50;;;12.18;45.91
75447;BME280;64024;55.820;37.574;2022-11-20T14:00:22;99340.72;;;12.12;45.86
75447;BME280;64024;55.820;37.574;2022-11-20T14:05:36;99352.84;;;12.08;45.69
75447;BME280;64024;55.820;37.574;2022-11-20T14:08:10;99353.03;;;12.06;45.46
75447;BME280;64024;55.820;37.574;2022-11-20T14:10:38;99355.09;;;12.04;45.96
75447;BME280;64024;55.820;37.574;2022-11-20T14:13:16;99350.59;;;12.05;45.90
75447;BME280;64024;55.820;37.574;2022-11-20T14:15:42;99356.16;;;12.03;45.75
75447;BME280;64024;55.820;37.574;2022-11-20T14:18:14;99354.47;;;12.02;46.14
75447;BME280;64024;55.820;37.574;2022-11-20T14:20:41;99360.03;;;12.01;45.84
75447;BME280;64024;55.820;37.574;2022-11-20T14:23:09;99359.66;;;11.97;45.87
75447;BME280;64024;55.820;37.574;2022-11-20T14:25:35;99363.94;;;11.98;45.85
75447;BME280;64024;55.820;37.574;2022-11-20T14:28:02;99361.50;;;11.97;46.05
75447;BME280;64024;55.820;37.574;2022-11-20T14:30:38;99374.00;;;11.96;45.82
75447;BME280;64024;55.820;37.574;2022-11-20T14:33:11;99371.34;;;11.96;45.96
75447;BME280;64024;55.820;37.574;2022-11-20T14:35:53;99381.38;;;11.94;45.90
75447;BME280;64024;55.820;37.574;2022-11-20T14:38:24;99376.03;;;11.94;45.80